Time;durP1;ratioP1;P1;durP2;ratioP2;P2;SDS_P1;SDS_P2;PMS_P1;PMS_P2;Temp;Humidity;BMP_temperature;BMP_pressure;BME280_temperature;BME280_humidity;BME280_pressure;Samples;Min_cycle;Max_cycle;Signal;HPM_P1;HPM_P2
2022/09/04 00:02:28;;;;;;;1.47;0.97;;;13.50;96.10;;;;;;4966978;28;20311;-79
2022/09/04 00:05:03;;;;;;;2.73;1.10;;;13.50;96.20;;;;;;4997756;28;20244;-77
2022/09/04 00:07:38;;;;;;;2.20;0.80;;;13.50;96.30;;;;;;4973162;28;20249;-79
2022/09/04 00:10:14;;;;;;;1.67;0.87;;;13.50;96.70;;;;;;4978181;28;20248;-78
2022/09/04 00:12:56;;;;;;;1.37;0.80;;;13.40;96.30;;;;;;4979674;28;20230;-79
2022/09/04 00:15:30;;;;;;;2.07;0.90;;;13.40;96.30;;;;;;4978104;28;20833;-78
2022/09/04 00:18:02;;;;;;;1.60;0.80;;;13.40;96.20;;;;;;4987158;28;20224;-79
2022/09/04 00:20:37;;;;;;;2.53;0.90;;;13.40;96.30;;;;;;4989458;28;20230;-79
2022/09/04 00:23:11;;;;;;;3.03;0.73;;;13.40;96.60;;;;;;4976258;28;20219;-79
2022/09/04 00:25:47;;;;;;;1.03;0.80;;;13.30;96.50;;;;;;4996406;28;20232;-80
2022/09/04 00:28:23;;;;;;;1.40;0.90;;;13.30;96.60;;;;;;4979733;28;20272;-79
2022/09/04 00:30:56;;;;;;;3.10;1.00;;;13.30;96.70;;;;;;4995506;28;20311;-78
2022/09/04 00:33:32;;;;;;;1.97;0.70;;;13.30;96.80;;;;;;4975939;28;20232;-78
2022/09/04 00:36:02;;;;;;;3.83;0.93;;;13.20;96.80;;;;;;5008981;28;20238;-78
2022/09/04 00:38:38;;;;;;;3.20;1.00;;;13.20;96.80;;;;;;4996828;28;20214;-78
2022/09/04 00:41:14;;;;;;;1.87;1.00;;;13.20;96.90;;;;;;4989295;28;20224;-77
2022/09/04 00:44:10;;;;;;;1.10;0.70;;;13.20;97.00;;;;;;4987978;28;20235;-78
2022/09/04 00:47:11;;;;;;;1.13;0.80;;;13.10;97.30;;;;;;4947771;28;20563;-78
2022/09/04 00:50:10;;;;;;;1.53;0.90;;;13.10;97.30;;;;;;4974327;28;20235;-78
2022/09/04 00:53:12;;;;;;;3.73;0.90;;;13.10;97.30;;;;;;4980027;28;20314;-78
2022/09/04 00:55:49;;;;;;;1.20;0.80;;;13.10;97.40;;;;;;4981568;28;20834;-78
2022/09/04 00:58:29;;;;;;;2.57;1.00;;;13.00;97.20;;;;;;4982298;28;20221;-79
2022/09/04 01:00:59;;;;;;;2.00;1.00;;;13.00;97.40;;;;;;4982144;28;20787;-79
2022/09/04 01:03:45;;;;;;;1.50;0.80;;;13.00;97.20;;;;;;4974687;28;20735;-78
2022/09/04 01:06:28;;;;;;;3.73;1.00;;;12.90;97.70;;;;;;4987905;28;20657;-78
2022/09/04 01:09:17;;;;;;;1.77;0.90;;;12.90;97.60;;;;;;4980875;28;20239;-78
2022/09/04 01:11:56;;;;;;;1.30;0.80;;;12.90;97.70;;;;;;4974937;28;20233;-78
2022/09/04 01:14:33;;;;;;;4.43;0.90;;;12.90;97.60;;;;;;4980395;28;20224;-78
2022/09/04 01:17:08;;;;;;;2.70;0.80;;;12.90;97.60;;;;;;5004258;28;20236;-78
2022/09/04 01:19:49;;;;;;;1.80;0.90;;;12.80;97.50;;;;;;4985170;28;20229;-78
2022/09/04 01:22:54;;;;;;;1.90;0.70;;;12.80;97.80;;;;;;4981741;28;20236;-77
2022/09/04 01:25:34;;;;;;;2.10;0.70;;;12.80;98.00;;;;;;4975506;28;20261;-78
2022/09/04 01:28:07;;;;;;;4.37;0.90;;;12.80;97.80;;;;;;4976573;28;20220;-78
2022/09/04 01:30:43;;;;;;;3.63;0.90;;;12.80;97.90;;;;;;4980351;28;20243;-78
2022/09/04 01:33:18;;;;;;;1.93;0.80;;;12.80;98.10;;;;;;4986530;28;22300;-78
2022/09/04 01:35:51;;;;;;;1.10;0.63;;;12.70;98.00;;;;;;4990456;28;20257;-78
2022/09/04 01:38:25;;;;;;;3.10;1.00;;;12.70;98.10;;;;;;4976836;28;20310;-78
2022/09/04 01:40:59;;;;;;;1.87;0.80;;;12.70;98.00;;;;;;4984067;28;20319;-79
2022/09/04 01:43:27;;;;;;;1.00;0.80;;;12.70;98.10;;;;;;4977117;28;20227;-78
2022/09/04 01:46:27;;;;;;;1.13;0.80;;;12.70;98.10;;;;;;4972734;28;20218;-78
2022/09/04 01:49:02;;;;;;;1.00;0.73;;;12.70;98.50;;;;;;4987381;28;20340;-78
2022/09/04 01:51:38;;;;;;;2.07;0.80;;;12.70;98.20;;;;;;4986095;28;20221;-78
2022/09/04 01:54:16;;;;;;;2.93;0.90;;;12.70;98.20;;;;;;4976764;28;20243;-78
2022/09/04 01:56:51;;;;;;;1.00;0.90;;;12.70;98.30;;;;;;4975904;28;20234;-78
2022/09/04 01:59:28;;;;;;;1.33;0.80;;;12.70;98.20;;;;;;4991939;28;20228;-77
2022/09/04 02:02:01;;;;;;;2.03;1.03;;;12.70;98.40;;;;;;4972538;28;20224;-77
2022/09/04 02:04:32;;;;;;;1.77;0.80;;;12.60;98.30;;;;;;5000659;28;20243;-78
2022/09/04 02:07:10;;;;;;;1.80;0.90;;;12.60;98.20;;;;;;4977640;28;20225;-77
2022/09/04 02:09:44;;;;;;;2.60;1.03;;;12.60;98.50;;;;;;4984044;28;20551;-77
2022/09/04 02:12:26;;;;;;;1.67;0.90;;;12.60;98.40;;;;;;4982895;28;20592;-78
2022/09/04 02:15:03;;;;;;;2.50;1.17;;;12.60;98.60;;;;;;4983294;28;20235;-78
2022/09/04 02:17:38;;;;;;;1.50;0.80;;;12.60;98.50;;;;;;4971989;28;20313;-77
2022/09/04 02:20:15;;;;;;;1.00;0.90;;;12.60;98.50;;;;;;4974379;28;20222;-77
2022/09/04 02:22:50;;;;;;;1.33;0.90;;;12.60;98.50;;;;;;4992534;28;20233;-77
2022/09/04 02:25:27;;;;;;;1.13;0.80;;;12.60;98.50;;;;;;4977213;28;20232;-78
2022/09/04 02:28:05;;;;;;;2.17;1.00;;;12.50;98.60;;;;;;4986405;28;20223;-78
2022/09/04 02:30:40;;;;;;;1.13;0.90;;;12.50;98.70;;;;;;4986360;28;20228;-76
2022/09/04 02:33:14;;;;;;;2.50;0.90;;;12.50;98.60;;;;;;4985881;28;20218;-76
2022/09/04 02:35:47;;;;;;;1.33;0.90;;;12.50;98.60;;;;;;4979178;28;20610;-78
2022/09/04 02:38:25;;;;;;;1.20;0.87;;;12.50;98.60;;;;;;4978615;28;20354;-78
2022/09/04 02:40:58;;;;;;;1.87;0.80;;;12.50;98.70;;;;;;4982457;28;20287;-79
2022/09/04 02:43:38;;;;;;;0.80;0.70;;;12.40;98.60;;;;;;4981035;28;21819;-79
2022/09/04 02:46:13;;;;;;;4.27;1.10;;;12.40;98.70;;;;;;4982119;28;20593;-79
2022/09/04 02:48:50;;;;;;;1.87;0.90;;;12.40;98.70;;;;;;4980696;28;20225;-79
2022/09/04 02:51:26;;;;;;;2.50;0.80;;;12.40;98.70;;;;;;4978245;28;20230;-78
2022/09/04 02:54:01;;;;;;;1.97;1.03;;;12.40;98.70;;;;;;4971256;28;20236;-78
2022/09/04 02:56:39;;;;;;;2.50;1.03;;;12.30;98.80;;;;;;4962187;28;20227;-79
2022/09/04 02:59:34;;;;;;;1.17;0.80;;;12.30;98.80;;;;;;4980879;28;20586;-79
2022/09/04 03:02:04;;;;;;;1.47;0.80;;;12.30;99.00;;;;;;4973332;28;20313;-79
2022/09/04 03:04:39;;;;;;;1.13;0.70;;;12.40;98.80;;;;;;4990892;28;20239;-79
2022/09/04 03:07:13;;;;;;;1.70;0.83;;;12.30;98.80;;;;;;4993582;28;20880;-79
2022/09/04 03:09:45;;;;;;;2.77;0.97;;;12.30;98.80;;;;;;4998004;28;20236;-79
2022/09/04 03:12:26;;;;;;;2.40;1.10;;;12.30;98.80;;;;;;4971248;28;20220;-78
2022/09/04 03:15:02;;;;;;;3.60;1.00;;;12.30;98.90;;;;;;4972484;28;20328;-77
2022/09/04 03:17:36;;;;;;;1.63;0.80;;;12.30;98.80;;;;;;4973786;28;20230;-78
2022/09/04 03:20:09;;;;;;;3.07;0.90;;;12.20;98.80;;;;;;4989161;28;20588;-79
2022/09/04 03:22:43;;;;;;;2.33;1.03;;;12.20;98.90;;;;;;4979608;28;21340;-79
2022/09/04 03:25:33;;;;;;;2.87;1.10;;;12.20;99.00;;;;;;4976644;28;20222;-80
2022/09/04 03:28:00;;;;;;;1.00;0.77;;;12.20;99.20;;;;;;4978109;28;20234;-80
2022/09/04 03:30:30;;;;;;;1.47;0.90;;;12.10;98.80;;;;;;4979043;28;20228;-79
2022/09/04 03:33:05;;;;;;;2.73;0.93;;;12.10;98.90;;;;;;4981938;28;20229;-79
2022/09/04 03:35:38;;;;;;;2.10;0.93;;;12.10;99.00;;;;;;4977311;28;20908;-79
2022/09/04 03:38:19;;;;;;;0.97;0.80;;;12.00;99.00;;;;;;4970443;28;20218;-79
2022/09/04 03:40:55;;;;;;;1.27;0.83;;;12.00;99.20;;;;;;4973313;28;20226;-78
2022/09/04 03:43:45;;;;;;;2.00;1.00;;;12.00;99.20;;;;;;4970954;28;20870;-78
2022/09/04 03:46:26;;;;;;;1.77;1.10;;;12.00;99.50;;;;;;4971585;28;20221;-78
2022/09/04 03:49:11;;;;;;;3.00;0.87;;;11.90;99.30;;;;;;4984765;28;20228;-79
2022/09/04 03:51:50;;;;;;;2.00;1.00;;;11.90;99.40;;;;;;4978422;28;20618;-79
2022/09/04 03:54:33;;;;;;;1.40;0.90;;;11.90;99.40;;;;;;4975569;28;21637;-78
2022/09/04 03:57:14;;;;;;;1.43;1.00;;;11.90;99.40;;;;;;4972206;28;20241;-79
2022/09/04 03:59:57;;;;;;;2.33;1.07;;;11.80;99.40;;;;;;4979233;28;20223;-78
2022/09/04 04:02:36;;;;;;;1.80;1.00;;;11.80;99.40;;;;;;4961368;28;20734;-78
2022/09/04 04:05:24;;;;;;;1.57;0.93;;;11.80;99.40;;;;;;4974165;28;20332;-78
2022/09/04 04:08:02;;;;;;;1.63;0.97;;;11.80;99.50;;;;;;4984621;28;20233;-79
2022/09/04 04:10:38;;;;;;;5.63;1.10;;;11.80;99.60;;;;;;4976063;28;20223;-79
2022/09/04 04:13:30;;;;;;;2.00;1.10;;;11.80;99.50;;;;;;4971223;28;20229;-79
2022/09/04 04:16:12;;;;;;;2.07;0.90;;;11.70;99.60;;;;;;4979748;28;20231;-79
2022/09/04 04:19:14;;;;;;;1.87;1.07;;;11.70;99.70;;;;;;4987655;28;20392;-79
2022/09/04 04:21:55;;;;;;;1.23;0.80;;;11.70;99.80;;;;;;4986448;28;20306;-78
2022/09/04 04:24:38;;;;;;;1.63;0.90;;;11.70;99.60;;;;;;4975794;28;20214;-79
2022/09/04 04:27:16;;;;;;;1.33;1.10;;;11.60;99.60;;;;;;4977161;28;20228;-78
2022/09/04 04:30:08;;;;;;;2.27;1.00;;;11.70;99.60;;;;;;4972668;28;20235;-78
2022/09/04 04:32:49;;;;;;;1.97;0.90;;;11.60;99.90;;;;;;4988249;28;20603;-80
2022/09/04 04:35:27;;;;;;;2.70;1.10;;;11.60;99.60;;;;;;4969170;28;20226;-77
2022/09/04 04:38:07;;;;;;;1.10;0.90;;;11.60;99.70;;;;;;4970249;28;20223;-79
2022/09/04 04:40:58;;;;;;;1.20;1.00;;;11.50;99.80;;;;;;4971709;28;20224;-79
2022/09/04 04:43:33;;;;;;;1.83;1.00;;;11.60;99.90;;;;;;4983169;28;20259;-78
2022/09/04 04:46:08;;;;;;;2.47;1.50;;;11.50;99.70;;;;;;4972712;28;20218;-79
2022/09/04 04:49:13;;;;;;;1.83;0.83;;;11.50;99.70;;;;;;4976682;28;20365;-78
2022/09/04 04:52:02;;;;;;;1.77;1.07;;;11.50;99.90;;;;;;4980372;28;22748;-78
2022/09/04 04:54:45;;;;;;;1.87;1.10;;;11.50;99.80;;;;;;4978113;28;20233;-79
2022/09/04 04:57:21;;;;;;;1.37;1.00;;;11.50;99.90;;;;;;4986114;28;20229;-78
2022/09/04 04:59:54;;;;;;;3.10;1.20;;;11.60;99.90;;;;;;4974669;28;20230;-79
2022/09/04 05:02:26;;;;;;;1.20;1.00;;;11.60;99.90;;;;;;4975629;28;20747;-79
2022/09/04 05:05:01;;;;;;;2.90;1.03;;;11.60;99.90;;;;;;4987157;28;21008;-79
2022/09/04 05:07:36;;;;;;;1.90;1.00;;;11.60;99.90;;;;;;4979694;28;20365;-79
2022/09/04 05:10:11;;;;;;;3.97;1.20;;;11.60;99.90;;;;;;4995050;28;20217;-78
2022/09/04 05:12:53;;;;;;;1.87;1.17;;;11.70;99.90;;;;;;4980009;28;20663;-79
2022/09/04 05:15:26;;;;;;;1.27;1.00;;;11.70;99.90;;;;;;4977779;28;20749;-79
2022/09/04 05:17:59;;;;;;;2.70;1.00;;;11.70;99.90;;;;;;4974812;28;20276;-78
2022/09/04 05:20:37;;;;;;;4.77;1.17;;;11.80;99.90;;;;;;4993469;28;20681;-78
2022/09/04 05:23:16;;;;;;;1.17;0.90;;;11.80;99.90;;;;;;4998623;28;20313;-79
2022/09/04 05:25:53;;;;;;;1.93;1.10;;;11.90;99.90;;;;;;4981465;28;20915;-78
2022/09/04 05:28:26;;;;;;;2.80;1.20;;;11.90;99.90;;;;;;4993684;28;20225;-79
2022/09/04 05:31:04;;;;;;;2.10;1.20;;;11.90;99.80;;;;;;4975365;28;20684;-79
2022/09/04 05:33:38;;;;;;;3.17;0.90;;;11.90;99.80;;;;;;4977960;28;20226;-79
2022/09/04 05:36:12;;;;;;;1.97;1.00;;;12.00;99.80;;;;;;4990674;28;20228;-79
2022/09/04 05:38:50;;;;;;;1.40;0.90;;;12.00;99.80;;;;;;4978358;28;20229;-77
2022/09/04 05:41:31;;;;;;;3.37;1.10;;;12.10;99.80;;;;;;4967956;28;20329;-79
2022/09/04 05:44:19;;;;;;;2.93;0.93;;;12.10;99.70;;;;;;4977628;28;20241;-79
2022/09/04 05:47:01;;;;;;;2.30;1.10;;;12.20;99.60;;;;;;4984461;28;20336;-79
2022/09/04 05:49:41;;;;;;;1.63;0.80;;;12.20;99.60;;;;;;4984782;28;20222;-80
2022/09/04 05:52:34;;;;;;;2.30;1.10;;;12.30;99.80;;;;;;4983657;28;20308;-79
2022/09/04 05:55:30;;;;;;;1.60;1.20;;;12.40;99.50;;;;;;4983015;28;20923;-80
2022/09/04 05:58:13;;;;;;;2.13;1.20;;;12.40;99.50;;;;;;4972270;28;20247;-79
2022/09/04 06:00:49;;;;;;;1.20;0.93;;;12.50;99.50;;;;;;4974707;28;20225;-80
2022/09/04 06:03:32;;;;;;;1.17;0.87;;;12.60;99.30;;;;;;4980605;28;20280;-78
2022/09/04 06:06:21;;;;;;;3.50;1.03;;;12.60;99.20;;;;;;4994862;28;20222;-78
2022/09/04 06:09:01;;;;;;;1.90;1.00;;;12.70;99.20;;;;;;4980568;28;20224;-79
2022/09/04 06:11:44;;;;;;;1.53;1.00;;;12.80;99.10;;;;;;4982174;28;20233;-80
2022/09/04 06:14:28;;;;;;;2.93;1.10;;;12.90;99.10;;;;;;4973603;28;20298;-79
2022/09/04 06:17:09;;;;;;;1.93;0.93;;;12.90;98.90;;;;;;4992744;28;20227;-80
2022/09/04 06:19:55;;;;;;;2.33;1.20;;;13.00;98.80;;;;;;4990025;28;20304;-80
2022/09/04 06:22:40;;;;;;;1.97;0.90;;;13.10;98.90;;;;;;4996532;28;20232;-79
2022/09/04 06:25:34;;;;;;;2.67;1.03;;;13.20;98.70;;;;;;4975714;28;20234;-79
2022/09/04 06:28:15;;;;;;;1.93;1.00;;;13.20;98.70;;;;;;4982038;28;20321;-78
2022/09/04 06:30:53;;;;;;;2.57;1.10;;;13.40;98.50;;;;;;4997565;28;20229;-78
2022/09/04 06:33:32;;;;;;;2.00;0.83;;;13.40;98.30;;;;;;4984872;28;20227;-78
2022/09/04 06:36:19;;;;;;;2.83;1.23;;;13.50;98.00;;;;;;4978204;28;20684;-78
2022/09/04 06:39:08;;;;;;;1.60;1.20;;;13.60;97.90;;;;;;4977911;28;20698;-78
2022/09/04 06:41:53;;;;;;;1.93;0.83;;;13.60;98.10;;;;;;4987305;28;20229;-78
2022/09/04 06:44:33;;;;;;;1.60;0.83;;;13.70;98.00;;;;;;4975525;28;21112;-78
2022/09/04 06:47:11;;;;;;;2.00;1.33;;;13.70;97.80;;;;;;4975325;28;20232;-80
2022/09/04 06:49:48;;;;;;;2.90;1.30;;;13.80;97.70;;;;;;4980858;28;20607;-78
2022/09/04 06:52:25;;;;;;;2.80;1.20;;;13.90;97.60;;;;;;4980964;28;20553;-80
2022/09/04 06:54:59;;;;;;;1.30;1.20;;;13.90;97.60;;;;;;4992900;28;20713;-78
2022/09/04 06:57:52;;;;;;;2.87;1.13;;;14.00;97.60;;;;;;4976999;28;20226;-78
2022/09/04 07:00:22;;;;;;;3.37;1.20;;;14.10;97.60;;;;;;4984726;28;20229;-81
2022/09/04 07:03:27;;;;;;;1.90;1.10;;;14.10;97.50;;;;;;4975258;28;20222;-78
2022/09/04 07:06:01;;;;;;;3.33;1.50;;;14.20;97.30;;;;;;4985717;28;20225;-81
2022/09/04 07:08:42;;;;;;;2.17;1.40;;;14.30;97.20;;;;;;4974825;28;20290;-78
2022/09/04 07:11:19;;;;;;;1.57;1.20;;;14.40;97.00;;;;;;4977268;28;20230;-78
2022/09/04 07:14:18;;;;;;;2.73;1.30;;;14.50;96.90;;;;;;4983018;28;20236;-80
2022/09/04 07:16:54;;;;;;;1.50;1.40;;;14.50;96.90;;;;;;4975967;28;20275;-81
2022/09/04 07:19:49;;;;;;;2.70;1.43;;;14.60;96.70;;;;;;4976220;28;20256;-80
2022/09/04 07:22:37;;;;;;;3.77;1.40;;;14.70;96.50;;;;;;4976219;28;20235;-80
2022/09/04 07:25:12;;;;;;;8.57;1.63;;;14.80;96.50;;;;;;4976547;28;20953;-81
2022/09/04 07:27:59;;;;;;;4.57;1.50;;;15.00;96.50;;;;;;5003573;28;20214;-79
2022/09/04 07:30:29;;;;;;;4.50;1.47;;;15.00;96.40;;;;;;4988040;28;20229;-80
2022/09/04 07:33:00;;;;;;;2.70;1.60;;;15.20;96.20;;;;;;4984171;28;20225;-80
2022/09/04 07:35:35;;;;;;;1.93;1.23;;;15.30;96.10;;;;;;4995480;28;20690;-77
2022/09/04 07:38:12;;;;;;;1.53;1.30;;;15.30;95.80;;;;;;4974156;28;20272;-78
2022/09/04 07:40:42;;;;;;;2.00;1.40;;;15.50;95.60;;;;;;4977988;28;20218;-78
2022/09/04 07:43:20;;;;;;;1.53;1.40;;;15.60;95.70;;;;;;4973758;28;20302;-80
2022/09/04 07:45:54;;;;;;;2.73;1.83;;;15.70;95.80;;;;;;4983571;28;20236;-78
2022/09/04 07:48:28;;;;;;;2.13;1.70;;;15.90;95.60;;;;;;4988044;28;20225;-78
2022/09/04 07:51:08;;;;;;;2.30;1.50;;;16.20;95.60;;;;;;4990636;28;20229;-79
2022/09/04 07:53:55;;;;;;;4.57;2.08;;;16.60;96.20;;;;;;4984658;28;20229;-78
2022/09/04 07:56:33;;;;;;;3.92;1.50;;;17.30;95.40;;;;;;4977129;28;20568;-78
2022/09/04 07:59:25;;;;;;;3.08;1.83;;;18.20;95.00;;;;;;4979367;28;20264;-78
2022/09/04 08:02:23;;;;;;;4.45;1.98;;;19.00;93.80;;;;;;4989548;28;20224;-78
2022/09/04 08:05:15;;;;;;;3.58;1.70;;;19.90;92.40;;;;;;4984434;28;20229;-78
2022/09/04 08:08:05;;;;;;;2.88;1.63;;;20.70;88.20;;;;;;4978593;28;20218;-78
2022/09/04 08:10:39;;;;;;;2.53;1.80;;;21.40;89.50;;;;;;4980795;28;20222;-78
2022/09/04 08:13:32;;;;;;;3.10;1.65;;;22.00;89.20;;;;;;4975106;28;20421;-78
2022/09/04 08:16:06;;;;;;;3.45;1.80;;;22.60;86.60;;;;;;4976213;28;20788;-78
2022/09/04 08:19:00;;;;;;;2.28;1.80;;;23.20;80.80;;;;;;4974650;28;20316;-79
2022/09/04 08:21:29;;;;;;;4.18;1.95;;;23.60;80.90;;;;;;4977035;28;20234;-79
2022/09/04 08:24:28;;;;;;;2.90;1.70;;;24.00;79.00;;;;;;4977403;28;20226;-78
2022/09/04 08:27:10;;;;;;;2.25;1.70;;;24.30;76.00;;;;;;4974138;28;20399;-79
2022/09/04 08:29:50;;;;;;;2.10;1.90;;;24.50;76.80;;;;;;4997435;28;20597;-79
2022/09/04 08:32:40;;;;;;;1.75;1.60;;;24.80;75.60;;;;;;4978802;28;20225;-79
2022/09/04 08:35:16;;;;;;;3.55;2.05;;;25.10;74.50;;;;;;4977779;28;20536;-79
2022/09/04 08:37:58;;;;;;;2.55;1.95;;;25.50;74.10;;;;;;4987617;28;20228;-79
2022/09/04 08:40:53;;;;;;;2.88;2.00;;;25.70;72.70;;;;;;4981323;28;20317;-79
2022/09/04 08:43:39;;;;;;;4.38;2.03;;;25.90;72.50;;;;;;4979890;28;20297;-79
2022/09/04 08:46:33;;;;;;;2.50;1.92;;;26.10;71.20;;;;;;4980098;28;20596;-79
2022/09/04 08:49:47;;;;;;;2.58;1.65;;;26.30;69.70;;;;;;4983430;28;20222;-79
2022/09/04 08:52:52;;;;;;;2.28;1.95;;;26.60;69.40;;;;;;4986800;28;20308;-79
2022/09/04 08:55:44;;;;;;;3.55;1.80;;;26.80;65.80;;;;;;4982487;28;22463;-80
2022/09/04 08:58:33;;;;;;;2.72;2.00;;;26.70;63.70;;;;;;4982113;28;20225;-80
2022/09/04 09:01:44;;;;;;;2.58;1.90;;;26.50;64.30;;;;;;4982060;28;20687;-80
2022/09/04 09:04:47;;;;;;;3.42;1.70;;;26.20;65.10;;;;;;4941684;28;20230;-79
2022/09/04 09:07:43;;;;;;;3.15;1.98;;;26.00;65.60;;;;;;4990594;28;20229;-80
2022/09/04 09:10:47;;;;;;;3.20;2.28;;;25.70;65.40;;;;;;4975111;28;20405;-80
2022/09/04 09:13:53;;;;;;;2.80;1.70;;;25.60;66.10;;;;;;4978302;28;20437;-80
2022/09/04 09:16:22;;;;;;;3.72;2.10;;;25.50;66.30;;;;;;4987535;28;20229;-80
2022/09/04 09:19:23;;;;;;;4.97;1.85;;;25.70;67.60;;;;;;4994764;28;20960;-80
2022/09/04 09:22:08;;;;;;;3.60;2.15;;;26.00;67.80;;;;;;4979278;28;20232;-80
2022/09/04 09:25:18;;;;;;;2.97;1.80;;;26.50;67.90;;;;;;4996228;28;20234;-81
2022/09/04 09:28:34;;;;;;;1.90;1.70;;;27.00;65.80;;;;;;4986077;28;20310;-81
2022/09/04 09:31:48;;;;;;;6.63;2.17;;;27.70;65.20;;;;;;4986120;28;20350;-81
2022/09/04 09:34:58;;;;;;;2.38;1.50;;;28.30;64.10;;;;;;4981373;28;20249;-80
2022/09/04 09:37:55;;;;;;;2.35;1.80;;;28.70;62.30;;;;;;4996166;28;20300;-81
2022/09/04 09:40:54;;;;;;;2.45;2.20;;;29.10;60.90;;;;;;4988476;28;20737;-81
2022/09/04 09:44:06;;;;;;;3.63;1.83;;;29.50;61.10;;;;;;4970338;28;20592;-81
2022/09/04 09:47:18;;;;;;;2.30;1.63;;;29.80;61.00;;;;;;4982872;28;20763;-81
2022/09/04 09:50:22;;;;;;;2.13;1.75;;;30.20;59.60;;;;;;4985538;28;20218;-80
2022/09/04 09:53:23;;;;;;;3.28;2.03;;;30.50;58.20;;;;;;4982291;28;20214;-80
2022/09/04 09:56:26;;;;;;;2.83;1.95;;;30.80;57.70;;;;;;4973968;28;20229;-81
2022/09/04 09:59:35;;;;;;;2.35;1.85;;;31.20;57.80;;;;;;4971596;28;20237;-81
2022/09/04 10:02:26;;;;;;;3.58;2.00;;;31.50;56.30;;;;;;4977448;28;20300;-81
2022/09/04 10:05:13;;;;;;;2.55;1.95;;;31.70;54.90;;;;;;4994075;28;20234;-81
2022/09/04 10:07:55;;;;;;;3.03;1.90;;;31.90;54.20;;;;;;4984936;28;20218;-81
2022/09/04 10:10:46;;;;;;;3.13;1.63;;;32.00;51.50;;;;;;4993836;28;20228;-80
2022/09/04 10:13:46;;;;;;;1.70;1.55;;;32.10;52.40;;;;;;4978954;28;20227;-81
2022/09/04 10:16:49;;;;;;;1.95;1.75;;;32.10;51.50;;;;;;4979483;28;20333;-81
2022/09/04 10:19:50;;;;;;;2.80;1.67;;;32.10;51.30;;;;;;4906583;29;20223;-81
2022/09/04 10:23:20;;;;;;;1.80;1.63;;;32.00;52.10;;;;;;4988385;28;20308;-81
2022/09/04 10:26:25;;;;;;;3.70;1.98;;;32.00;52.60;;;;;;4865983;29;20719;-81
2022/09/04 10:29:19;;;;;;;2.47;2.05;;;32.10;51.50;;;;;;4948244;28;20277;-81
2022/09/04 10:32:07;;;;;;;2.25;1.90;;;32.20;50.70;;;;;;4973569;28;20272;-81
2022/09/04 10:35:10;;;;;;;2.50;1.80;;;32.40;49.90;;;;;;4995372;28;20324;-81
2022/09/04 10:38:07;;;;;;;1.90;1.65;;;32.40;50.50;;;;;;4987002;28;20241;-81
2022/09/04 10:40:44;;;;;;;2.25;1.88;;;32.40;49.90;;;;;;4982018;28;20233;-81
2022/09/04 10:43:31;;;;;;;3.00;2.00;;;32.50;48.90;;;;;;4980469;28;20221;-81
2022/09/04 10:46:02;;;;;;;2.10;1.85;;;32.50;49.10;;;;;;4990708;28;20654;-81
2022/09/04 10:49:00;;;;;;;2.35;1.77;;;32.50;48.90;;;;;;4983516;28;20240;-81
2022/09/04 10:51:58;;;;;;;3.00;1.85;;;32.50;47.80;;;;;;4977258;28;21088;-81
2022/09/04 10:54:53;;;;;;;2.85;1.90;;;32.50;47.00;;;;;;4987656;28;20230;-81
2022/09/04 10:57:42;;;;;;;2.88;2.00;;;32.40;47.40;;;;;;4998731;28;20218;-81
2022/09/04 11:00:13;;;;;;;6.90;2.25;;;32.40;47.30;;;;;;4987624;28;20964;-81
2022/09/04 11:03:17;;;;;;;2.08;1.95;;;32.30;47.40;;;;;;4981817;28;20230;-81
2022/09/04 11:06:11;;;;;;;2.00;1.80;;;32.40;47.30;;;;;;4987063;28;20248;-81
2022/09/04 11:08:57;;;;;;;3.28;1.70;;;32.40;46.70;;;;;;4980880;28;20336;-81
2022/09/04 11:11:42;;;;;;;3.28;1.90;;;32.40;46.60;;;;;;4977390;28;20320;-82
2022/09/04 11:14:29;;;;;;;1.92;1.73;;;32.40;46.00;;;;;;4976176;28;20225;-81
2022/09/04 11:17:27;;;;;;;2.88;1.67;;;32.30;46.00;;;;;;4977995;28;20649;-81
2022/09/04 11:20:25;;;;;;;2.35;1.77;;;32.30;46.30;;;;;;4981227;28;20238;-81
2022/09/04 11:23:26;;;;;;;2.75;1.63;;;32.10;45.30;;;;;;4979454;28;20235;-81
2022/09/04 11:26:51;;;;;;;4.82;2.00;;;32.10;46.00;;;;;;4989285;28;20219;-81
2022/09/04 11:29:40;;;;;;;2.67;2.15;;;32.10;46.10;;;;;;4981132;28;20217;-81
2022/09/04 11:32:20;;;;;;;1.90;1.70;;;32.00;45.90;;;;;;4978753;28;20820;-81
2022/09/04 11:35:12;;;;;;;1.83;1.73;;;32.10;45.90;;;;;;4976581;28;20238;-81
2022/09/04 11:38:17;;;;;;;3.28;2.05;;;32.10;45.60;;;;;;4982701;28;20225;-81
2022/09/04 11:41:27;;;;;;;2.42;2.13;;;32.10;45.50;;;;;;5002276;28;20240;-81
2022/09/04 11:44:15;;;;;;;4.32;2.13;;;32.10;46.10;;;;;;4976498;28;20237;-81
2022/09/04 11:47:02;;;;;;;2.47;1.90;;;32.10;45.40;;;;;;4998879;28;20228;-80
2022/09/04 11:49:45;;;;;;;2.42;2.00;;;32.00;45.50;;;;;;4983435;28;20707;-81
2022/09/04 11:52:16;;;;;;;2.00;1.80;;;31.80;45.70;;;;;;4976293;28;20253;-81
2022/09/04 11:55:15;;;;;;;2.08;1.88;;;31.70;45.60;;;;;;4980795;28;20243;-80
2022/09/04 11:57:58;;;;;;;3.72;1.80;;;31.50;45.90;;;;;;4997814;28;20237;-81
2022/09/04 12:00:25;;;;;;;3.25;1.65;;;31.50;45.40;;;;;;4981748;28;20261;-80
2022/09/04 12:03:35;;;;;;;2.80;2.15;;;31.40;45.80;;;;;;4983628;28;20234;-81
2022/09/04 12:06:24;;;;;;;2.28;1.90;;;31.40;46.40;;;;;;4987687;28;20226;-81
2022/09/04 12:09:22;;;;;;;2.50;1.90;;;31.40;45.80;;;;;;4980135;28;20222;-81
2022/09/04 12:12:13;;;;;;;2.58;1.80;;;31.30;45.90;;;;;;4986653;28;20238;-81
2022/09/04 12:15:03;;;;;;;2.25;1.90;;;31.20;46.00;;;;;;4984883;28;20333;-82
2022/09/04 12:18:22;;;;;;;2.42;2.17;;;31.20;45.70;;;;;;4984734;28;20892;-81
2022/09/04 12:21:35;;;;;;;3.20;1.90;;;31.20;45.70;;;;;;4991001;28;20240;-82
2022/09/04 12:24:31;;;;;;;2.50;1.92;;;31.20;45.80;;;;;;4987569;28;20269;-82
2022/09/04 12:27:33;;;;;;;2.53;2.00;;;31.20;46.00;;;;;;4985334;28;20234;-82
2022/09/04 12:30:09;;;;;;;4.22;1.90;;;31.30;46.10;;;;;;4980759;28;20221;-82
2022/09/04 12:33:10;;;;;;;2.00;1.80;;;31.50;45.50;;;;;;4986998;28;20277;-82
2022/09/04 12:36:05;;;;;;;2.65;2.05;;;31.50;44.80;;;;;;4989692;28;20765;-82
2022/09/04 12:39:09;;;;;;;2.58;2.00;;;31.50;45.20;;;;;;4996694;28;20218;-82
2022/09/04 12:41:43;;;;;;;2.45;1.75;;;31.40;45.00;;;;;;5002287;28;20699;-82
2022/09/04 12:44:16;;;;;;;2.80;1.70;;;31.30;45.20;;;;;;4992188;28;20749;-82
2022/09/04 12:46:59;;;;;;;5.47;2.05;;;31.30;45.10;;;;;;4996168;28;20237;-82
2022/09/04 12:49:57;;;;;;;2.58;1.90;;;31.30;44.80;;;;;;4999704;28;20226;-82
2022/09/04 12:52:39;;;;;;;4.00;2.20;;;31.40;44.80;;;;;;4982533;28;20230;-82
2022/09/04 12:55:15;;;;;;;5.28;2.20;;;31.50;45.10;;;;;;4995104;28;20232;-82
2022/09/04 12:57:54;;;;;;;2.63;1.88;;;31.60;44.70;;;;;;4985135;28;20222;-82
2022/09/04 13:00:25;;;;;;;3.38;2.10;;;31.60;44.50;;;;;;4979508;28;20260;-80
2022/09/04 13:03:06;;;;;;;2.30;2.10;;;31.60;44.40;;;;;;4991604;28;20226;-80
2022/09/04 13:05:49;;;;;;;3.17;2.35;;;31.60;44.70;;;;;;4990866;28;20310;-80
2022/09/04 13:08:21;;;;;;;2.85;1.90;;;31.60;44.30;;;;;;4981730;28;20260;-80
2022/09/04 13:11:00;;;;;;;2.53;1.90;;;31.60;44.00;;;;;;4981122;28;20249;-80
2022/09/04 13:13:34;;;;;;;2.88;1.77;;;31.50;43.80;;;;;;4983210;28;20229;-80
2022/09/04 13:16:08;;;;;;;2.28;1.90;;;31.40;43.90;;;;;;4986301;28;20221;-81
2022/09/04 13:18:59;;;;;;;2.45;1.80;;;31.30;44.00;;;;;;4982286;28;20226;-83
2022/09/04 13:21:40;;;;;;;2.10;1.90;;;31.10;43.80;;;;;;4984012;28;20230;-81
2022/09/04 13:24:18;;;;;;;2.63;2.03;;;31.00;44.20;;;;;;4978498;28;20229;-81
2022/09/04 13:27:02;;;;;;;2.42;1.85;;;30.80;44.20;;;;;;4985291;28;20740;-82
2022/09/04 13:29:40;;;;;;;2.30;1.90;;;30.70;44.50;;;;;;4995648;28;20226;-82
2022/09/04 13:32:30;;;;;;;3.20;2.00;;;30.70;44.40;;;;;;5011262;28;20235;-81
2022/09/04 13:35:12;;;;;;;3.67;1.60;;;30.70;44.80;;;;;;4993806;28;20228;-81
2022/09/04 13:37:57;;;;;;;3.05;1.80;;;30.60;44.20;;;;;;4991693;28;20277;-81
2022/09/04 13:40:44;;;;;;;4.30;1.75;;;30.60;44.00;;;;;;4981079;28;20242;-77
2022/09/04 13:43:35;;;;;;;2.38;1.70;;;30.40;43.80;;;;;;4974301;28;20302;-83
2022/09/04 13:46:10;;;;;;;4.03;2.10;;;30.10;44.40;;;;;;4992773;28;20213;-83
2022/09/04 13:48:42;;;;;;;2.67;1.75;;;29.90;44.60;;;;;;4989645;28;20236;-81
2022/09/04 13:51:15;;;;;;;2.40;1.70;;;29.60;44.00;;;;;;4994448;28;20267;-80
2022/09/04 13:53:56;;;;;;;1.98;1.65;;;29.40;44.90;;;;;;4996123;28;20242;-81
2022/09/04 13:56:29;;;;;;;1.92;1.73;;;29.30;45.40;;;;;;4984048;28;20222;-81
2022/09/04 13:59:08;;;;;;;3.45;1.70;;;29.40;45.40;;;;;;4995150;28;20240;-81
2022/09/04 14:01:44;;;;;;;2.28;1.67;;;29.50;45.00;;;;;;4987637;28;20731;-80
2022/09/04 14:04:15;;;;;;;2.10;1.83;;;29.50;44.60;;;;;;4983309;28;20305;-82
2022/09/04 14:06:44;;;;;;;3.05;1.80;;;29.60;44.80;;;;;;5001599;28;20289;-81
2022/09/04 14:09:12;;;;;;;2.15;1.58;;;29.60;45.00;;;;;;4978837;28;20532;-81
2022/09/04 14:12:10;;;;;;;2.17;1.52;;;29.70;44.90;;;;;;5002755;28;20287;-82
2022/09/04 14:15:14;;;;;;;1.73;1.30;;;29.60;44.00;;;;;;4998849;28;20222;-81
2022/09/04 14:17:48;;;;;;;2.70;1.80;;;29.60;42.80;;;;;;4991953;28;20234;-82